sensor_id;sensor_type;location;lat;lon;timestamp;P1;durP1;ratioP1;P2;durP2;ratioP2
68765;SDS011;55756;45.582;11.484;2023-04-23T04:30:39;32.50;;;23.88;;
68765;SDS011;55756;45.582;11.484;2023-04-23T04:33:06;31.83;;;23.85;;
68765;SDS011;55756;45.582;11.484;2023-04-23T04:35:33;30.45;;;22.45;;
68765;SDS011;55756;45.582;11.484;2023-04-23T04:37:59;31.63;;;22.33;;
68765;SDS011;55756;45.582;11.484;2023-04-23T04:40:25;30.88;;;21.63;;
68765;SDS011;55756;45.582;11.484;2023-04-23T04:42:52;32.83;;;21.77;;
68765;SDS011;55756;45.582;11.484;2023-04-23T04:45:19;29.45;;;21.35;;
68765;SDS011;55756;45.582;11.484;2023-04-23T04:47:45;30.88;;;22.15;;
68765;SDS011;55756;45.582;11.484;2023-04-23T04:50:10;29.38;;;21.27;;
68765;SDS011;55756;45.582;11.484;2023-04-23T04:52:36;26.48;;;20.50;;
68765;SDS011;55756;45.582;11.484;2023-04-23T04:55:02;30.95;;;21.00;;
68765;SDS011;55756;45.582;11.484;2023-04-23T04:57:29;32.80;;;21.60;;
68765;SDS011;55756;45.582;11.484;2023-04-23T04:59:55;29.58;;;21.02;;
68765;SDS011;55756;45.582;11.484;2023-04-23T05:02:21;31.38;;;21.23;;
68765;SDS011;55756;45.582;11.484;2023-04-23T05:04:47;30.58;;;20.90;;
68765;SDS011;55756;45.582;11.484;2023-04-23T05:07:13;31.30;;;21.55;;
68765;SDS011;55756;45.582;11.484;2023-04-23T05:09:39;28.15;;;20.63;;
68765;SDS011;55756;45.582;11.484;2023-04-23T05:12:05;28.33;;;20.35;;
68765;SDS011;55756;45.582;11.484;2023-04-23T05:14:33;30.95;;;20.58;;
68765;SDS011;55756;45.582;11.484;2023-04-23T05:16:59;29.67;;;21.02;;
68765;SDS011;55756;45.582;11.484;2023-04-23T05:19:25;29.55;;;20.90;;
68765;SDS011;55756;45.582;11.484;2023-04-23T05:21:50;32.15;;;20.73;;
68765;SDS011;55756;45.582;11.484;2023-04-23T05:24:16;27.65;;;20.75;;
68765;SDS011;55756;45.582;11.484;2023-04-23T05:26:42;28.95;;;21.45;;
68765;SDS011;55756;45.582;11.484;2023-04-23T05:29:08;32.97;;;20.35;;
68765;SDS011;55756;45.582;11.484;2023-04-23T05:31:33;29.08;;;20.42;;
68765;SDS011;55756;45.582;11.484;2023-04-23T05:33:59;29.70;;;21.33;;
68765;SDS011;55756;45.582;11.484;2023-04-23T05:36:25;29.30;;;21.33;;
68765;SDS011;55756;45.582;11.484;2023-04-23T05:38:51;28.33;;;20.25;;
68765;SDS011;55756;45.582;11.484;2023-04-23T05:41:17;27.95;;;20.30;;
68765;SDS011;55756;45.582;11.484;2023-04-23T05:43:42;28.75;;;20.50;;
68765;SDS011;55756;45.582;11.484;2023-04-23T05:46:08;28.80;;;19.88;;
68765;SDS011;55756;45.582;11.484;2023-04-23T05:48:34;28.13;;;20.52;;
68765;SDS011;55756;45.582;11.484;2023-04-23T05:51:00;30.52;;;20.35;;
68765;SDS011;55756;45.582;11.484;2023-04-23T05:53:26;28.55;;;20.95;;
68765;SDS011;55756;45.582;11.484;2023-04-23T05:55:52;28.42;;;20.95;;
68765;SDS011;55756;45.582;11.484;2023-04-23T05:58:18;30.33;;;21.00;;
68765;SDS011;55756;45.582;11.484;2023-04-23T06:00:44;33.47;;;21.80;;
68765;SDS011;55756;45.582;11.484;2023-04-23T06:03:09;32.53;;;21.35;;
68765;SDS011;55756;45.582;11.484;2023-04-23T06:05:35;30.77;;;22.15;;
68765;SDS011;55756;45.582;11.484;2023-04-23T06:08:02;30.80;;;22.23;;
68765;SDS011;55756;45.582;11.484;2023-04-23T06:10:28;32.38;;;23.33;;
68765;SDS011;55756;45.582;11.484;2023-04-23T06:12:54;30.77;;;23.00;;
68765;SDS011;55756;45.582;11.484;2023-04-23T06:15:20;33.80;;;22.55;;
68765;SDS011;55756;45.582;11.484;2023-04-23T06:17:46;35.55;;;24.80;;
68765;SDS011;55756;45.582;11.484;2023-04-23T06:20:12;36.17;;;24.73;;
68765;SDS011;55756;45.582;11.484;2023-04-23T06:22:38;37.58;;;25.95;;
68765;SDS011;55756;45.582;11.484;2023-04-23T06:25:04;42.55;;;27.77;;
68765;SDS011;55756;45.582;11.484;2023-04-23T06:27:30;42.83;;;29.42;;
68765;SDS011;55756;45.582;11.484;2023-04-23T06:30:02;43.60;;;30.23;;
68765;SDS011;55756;45.582;11.484;2023-04-23T06:32:28;44.58;;;30.45;;
68765;SDS011;55756;45.582;11.484;2023-04-23T06:34:54;45.67;;;30.00;;
68765;SDS011;55756;45.582;11.484;2023-04-23T06:37:19;42.50;;;31.05;;
68765;SDS011;55756;45.582;11.484;2023-04-23T06:39:45;48.20;;;32.53;;
68765;SDS011;55756;45.582;11.484;2023-04-23T06:42:11;48.97;;;32.20;;
68765;SDS011;55756;45.582;11.484;2023-04-23T06:44:48;48.10;;;32.50;;
68765;SDS011;55756;45.582;11.484;2023-04-23T06:47:15;49.03;;;33.22;;
68765;SDS011;55756;45.582;11.484;2023-04-23T06:49:41;44.08;;;31.50;;
68765;SDS011;55756;45.582;11.484;2023-04-23T06:52:07;43.10;;;31.20;;
68765;SDS011;55756;45.582;11.484;2023-04-23T06:54:32;46.85;;;31.08;;
68765;SDS011;55756;45.582;11.484;2023-04-23T06:56:58;46.78;;;32.25;;
68765;SDS011;55756;45.582;11.484;2023-04-23T06:59:25;45.47;;;31.73;;
68765;SDS011;55756;45.582;11.484;2023-04-23T07:01:54;46.13;;;31.98;;
68765;SDS011;55756;45.582;11.484;2023-04-23T07:04:19;43.85;;;31.40;;
68765;SDS011;55756;45.582;11.484;2023-04-23T07:06:45;46.30;;;30.60;;
68765;SDS011;55756;45.582;11.484;2023-04-23T07:09:11;44.22;;;31.05;;
68765;SDS011;55756;45.582;11.484;2023-04-23T07:11:38;43.35;;;31.00;;
68765;SDS011;55756;45.582;11.484;2023-04-23T07:14:03;40.97;;;29.63;;
68765;SDS011;55756;45.582;11.484;2023-04-23T07:16:30;43.92;;;30.65;;
68765;SDS011;55756;45.582;11.484;2023-04-23T07:18:58;44.72;;;30.25;;
68765;SDS011;55756;45.582;11.484;2023-04-23T07:21:25;42.65;;;29.25;;
68765;SDS011;55756;45.582;11.484;2023-04-23T07:23:53;46.65;;;29.80;;
68765;SDS011;55756;45.582;11.484;2023-04-23T07:26:24;41.03;;;29.08;;
68765;SDS011;55756;45.582;11.484;2023-04-23T07:28:51;40.15;;;29.48;;
68765;SDS011;55756;45.582;11.484;2023-04-23T07:31:17;41.17;;;29.58;;
68765;SDS011;55756;45.582;11.484;2023-04-23T07:33:43;42.72;;;28.88;;
68765;SDS011;55756;45.582;11.484;2023-04-23T07:36:09;40.63;;;28.73;;
68765;SDS011;55756;45.582;11.484;2023-04-23T07:38:35;42.15;;;28.55;;
68765;SDS011;55756;45.582;11.484;2023-04-23T07:41:01;41.30;;;27.40;;
68765;SDS011;55756;45.582;11.484;2023-04-23T07:43:26;44.28;;;28.48;;
68765;SDS011;55756;45.582;11.484;2023-04-23T07:45:52;40.40;;;27.70;;
68765;SDS011;55756;45.582;11.484;2023-04-23T07:48:18;38.30;;;26.92;;
68765;SDS011;55756;45.582;11.484;2023-04-23T07:50:43;38.25;;;27.17;;
68765;SDS011;55756;45.582;11.484;2023-04-23T07:53:09;37.17;;;27.17;;
68765;SDS011;55756;45.582;11.484;2023-04-23T07:55:35;35.60;;;26.27;;
68765;SDS011;55756;45.582;11.484;2023-04-23T07:58:01;36.63;;;27.38;;
68765;SDS011;55756;45.582;11.484;2023-04-23T08:00:27;35.53;;;27.67;;
68765;SDS011;55756;45.582;11.484;2023-04-23T08:02:52;41.00;;;28.02;;
68765;SDS011;55756;45.582;11.484;2023-04-23T08:05:18;40.13;;;27.00;;
68765;SDS011;55756;45.582;11.484;2023-04-23T08:07:44;39.40;;;27.73;;
68765;SDS011;55756;45.582;11.484;2023-04-23T08:10:10;37.78;;;26.63;;
68765;SDS011;55756;45.582;11.484;2023-04-23T08:12:36;36.55;;;26.58;;
68765;SDS011;55756;45.582;11.484;2023-04-23T08:15:02;39.83;;;27.00;;
68765;SDS011;55756;45.582;11.484;2023-04-23T08:17:34;43.28;;;28.17;;
68765;SDS011;55756;45.582;11.484;2023-04-23T08:20:02;36.78;;;26.80;;
68765;SDS011;55756;45.582;11.484;2023-04-23T08:22:30;35.92;;;26.52;;
68765;SDS011;55756;45.582;11.484;2023-04-23T08:24:56;41.90;;;28.52;;
68765;SDS011;55756;45.582;11.484;2023-04-23T08:27:22;37.42;;;26.85;;
68765;SDS011;55756;45.582;11.484;2023-04-23T08:29:47;40.45;;;27.45;;
68765;SDS011;55756;45.582;11.484;2023-04-23T08:32:13;37.55;;;27.08;;
68765;SDS011;55756;45.582;11.484;2023-04-23T08:34:39;38.05;;;26.58;;
68765;SDS011;55756;45.582;11.484;2023-04-23T08:37:05;36.15;;;26.85;;
68765;SDS011;55756;45.582;11.484;2023-04-23T08:39:33;38.60;;;26.67;;
68765;SDS011;55756;45.582;11.484;2023-04-23T08:42:02;36.25;;;26.33;;
68765;SDS011;55756;45.582;11.484;2023-04-23T08:44:37;38.50;;;26.42;;
68765;SDS011;55756;45.582;11.484;2023-04-23T08:47:07;36.47;;;25.73;;
68765;SDS011;55756;45.582;11.484;2023-04-23T08:49:36;36.50;;;25.85;;
68765;SDS011;55756;45.582;11.484;2023-04-23T08:52:16;36.53;;;25.50;;
68765;SDS011;55756;45.582;11.484;2023-04-23T08:54:48;36.17;;;25.92;;
68765;SDS011;55756;45.582;11.484;2023-04-23T08:57:19;36.33;;;25.38;;
68765;SDS011;55756;45.582;11.484;2023-04-23T08:59:45;33.83;;;25.50;;
68765;SDS011;55756;45.582;11.484;2023-04-23T09:02:11;34.85;;;26.48;;
68765;SDS011;55756;45.582;11.484;2023-04-23T09:04:39;37.03;;;25.60;;
68765;SDS011;55756;45.582;11.484;2023-04-23T09:07:06;35.00;;;25.48;;
68765;SDS011;55756;45.582;11.484;2023-04-23T09:09:41;32.35;;;23.67;;
68765;SDS011;55756;45.582;11.484;2023-04-23T09:12:07;35.22;;;24.80;;
68765;SDS011;55756;45.582;11.484;2023-04-23T09:14:34;34.63;;;23.75;;
68765;SDS011;55756;45.582;11.484;2023-04-23T09:17:03;32.15;;;23.23;;
68765;SDS011;55756;45.582;11.484;2023-04-23T09:21:56;29.45;;;22.17;;
68765;SDS011;55756;45.582;11.484;2023-04-23T09:24:23;34.40;;;22.08;;
68765;SDS011;55756;45.582;11.484;2023-04-23T09:26:50;28.02;;;21.17;;
68765;SDS011;55756;45.582;11.484;2023-04-23T09:29:20;32.80;;;23.80;;
68765;SDS011;55756;45.582;11.484;2023-04-23T09:31:51;30.83;;;22.90;;
68765;SDS011;55756;45.582;11.484;2023-04-23T09:34:20;33.55;;;22.58;;
68765;SDS011;55756;45.582;11.484;2023-04-23T09:36:48;29.35;;;21.10;;
68765;SDS011;55756;45.582;11.484;2023-04-23T09:39:15;29.17;;;20.08;;
68765;SDS011;55756;45.582;11.484;2023-04-23T09:41:46;28.55;;;20.17;;
68765;SDS011;55756;45.582;11.484;2023-04-23T09:44:16;24.65;;;18.80;;
68765;SDS011;55756;45.582;11.484;2023-04-23T09:46:42;25.05;;;17.60;;
68765;SDS011;55756;45.582;11.484;2023-04-23T09:49:09;23.95;;;16.35;;
68765;SDS011;55756;45.582;11.484;2023-04-23T09:54:09;24.80;;;17.83;;
68765;SDS011;55756;45.582;11.484;2023-04-23T09:56:39;25.98;;;18.25;;
68765;SDS011;55756;45.582;11.484;2023-04-23T10:02:05;24.77;;;18.63;;
68765;SDS011;55756;45.582;11.484;2023-04-23T10:04:32;26.20;;;19.02;;
68765;SDS011;55756;45.582;11.484;2023-04-23T10:06:59;24.13;;;17.25;;
68765;SDS011;55756;45.582;11.484;2023-04-23T10:09:27;27.77;;;17.83;;
68765;SDS011;55756;45.582;11.484;2023-04-23T10:11:54;25.90;;;17.95;;
68765;SDS011;55756;45.582;11.484;2023-04-23T10:14:21;23.80;;;17.23;;
68765;SDS011;55756;45.582;11.484;2023-04-23T10:16:52;23.50;;;17.10;;
68765;SDS011;55756;45.582;11.484;2023-04-23T10:19:23;22.10;;;16.05;;
68765;SDS011;55756;45.582;11.484;2023-04-23T10:21:53;23.05;;;15.85;;
68765;SDS011;55756;45.582;11.484;2023-04-23T10:24:26;20.15;;;14.90;;
68765;SDS011;55756;45.582;11.484;2023-04-23T10:27:01;19.23;;;13.48;;
68765;SDS011;55756;45.582;11.484;2023-04-23T10:29:29;18.75;;;12.68;;
68765;SDS011;55756;45.582;11.484;2023-04-23T10:31:57;19.83;;;13.67;;
68765;SDS011;55756;45.582;11.484;2023-04-23T10:34:25;17.77;;;12.90;;
68765;SDS011;55756;45.582;11.484;2023-04-23T10:36:53;20.48;;;14.18;;
68765;SDS011;55756;45.582;11.484;2023-04-23T10:39:21;18.88;;;12.07;;
68765;SDS011;55756;45.582;11.484;2023-04-23T10:41:49;17.67;;;12.30;;
68765;SDS011;55756;45.582;11.484;2023-04-23T10:44:18;17.70;;;11.00;;
68765;SDS011;55756;45.582;11.484;2023-04-23T10:46:53;15.63;;;10.48;;
68765;SDS011;55756;45.582;11.484;2023-04-23T10:49:22;16.02;;;9.90;;
68765;SDS011;55756;45.582;11.484;2023-04-23T10:51:56;15.17;;;10.00;;
68765;SDS011;55756;45.582;11.484;2023-04-23T10:54:27;14.27;;;9.23;;
68765;SDS011;55756;45.582;11.484;2023-04-23T10:57:00;17.15;;;8.95;;
68765;SDS011;55756;45.582;11.484;2023-04-23T10:59:28;14.13;;;8.48;;
68765;SDS011;55756;45.582;11.484;2023-04-23T11:01:55;13.07;;;7.63;;
68765;SDS011;55756;45.582;11.484;2023-04-23T11:12:00;12.87;;;7.40;;
68765;SDS011;55756;45.582;11.484;2023-04-23T11:14:40;13.00;;;7.40;;
68765;SDS011;55756;45.582;11.484;2023-04-23T11:17:09;11.05;;;6.55;;
68765;SDS011;55756;45.582;11.484;2023-04-23T11:19:40;12.98;;;7.82;;
68765;SDS011;55756;45.582;11.484;2023-04-23T11:22:27;13.90;;;7.75;;
68765;SDS011;55756;45.582;11.484;2023-04-23T11:24:59;15.40;;;8.02;;
68765;SDS011;55756;45.582;11.484;2023-04-23T11:27:26;13.57;;;8.52;;
68765;SDS011;55756;45.582;11.484;2023-04-23T11:29:54;13.18;;;8.02;;
68765;SDS011;55756;45.582;11.484;2023-04-23T11:32:20;13.07;;;7.70;;
68765;SDS011;55756;45.582;11.484;2023-04-23T11:34:47;14.45;;;8.05;;
68765;SDS011;55756;45.582;11.484;2023-04-23T11:37:14;12.52;;;8.43;;
68765;SDS011;55756;45.582;11.484;2023-04-23T11:39:42;13.88;;;8.23;;
68765;SDS011;55756;45.582;11.484;2023-04-23T11:42:17;12.70;;;7.45;;
68765;SDS011;55756;45.582;11.484;2023-04-23T11:44:46;11.32;;;7.20;;
68765;SDS011;55756;45.582;11.484;2023-04-23T11:47:12;13.25;;;7.65;;
68765;SDS011;55756;45.582;11.484;2023-04-23T11:52:07;12.82;;;8.30;;
68765;SDS011;55756;45.582;11.484;2023-04-23T11:54:33;12.90;;;7.03;;
68765;SDS011;55756;45.582;11.484;2023-04-23T11:57:00;11.38;;;7.60;;
68765;SDS011;55756;45.582;11.484;2023-04-23T11:59:28;12.43;;;7.60;;
68765;SDS011;55756;45.582;11.484;2023-04-23T12:01:55;11.82;;;7.43;;
68765;SDS011;55756;45.582;11.484;2023-04-23T12:04:23;12.85;;;7.03;;
68765;SDS011;55756;45.582;11.484;2023-04-23T12:09:18;12.15;;;7.60;;
68765;SDS011;55756;45.582;11.484;2023-04-23T12:14:15;12.88;;;7.30;;
68765;SDS011;55756;45.582;11.484;2023-04-23T12:16:45;11.20;;;7.43;;
68765;SDS011;55756;45.582;11.484;2023-04-23T12:19:17;13.98;;;6.80;;
68765;SDS011;55756;45.582;11.484;2023-04-23T12:24:21;10.05;;;5.85;;
68765;SDS011;55756;45.582;11.484;2023-04-23T12:26:51;9.52;;;5.68;;
68765;SDS011;55756;45.582;11.484;2023-04-23T12:29:22;10.80;;;6.18;;
68765;SDS011;55756;45.582;11.484;2023-04-23T12:31:50;10.65;;;6.22;;
68765;SDS011;55756;45.582;11.484;2023-04-23T12:34:17;10.25;;;6.50;;
68765;SDS011;55756;45.582;11.484;2023-04-23T12:36:51;11.25;;;5.93;;
68765;SDS011;55756;45.582;11.484;2023-04-23T12:39:29;10.57;;;5.88;;
68765;SDS011;55756;45.582;11.484;2023-04-23T12:44:24;10.60;;;5.90;;
68765;SDS011;55756;45.582;11.484;2023-04-23T12:46:54;9.50;;;5.63;;
68765;SDS011;55756;45.582;11.484;2023-04-23T12:49:24;11.45;;;5.63;;
68765;SDS011;55756;45.582;11.484;2023-04-23T12:51:57;10.93;;;5.10;;
68765;SDS011;55756;45.582;11.484;2023-04-23T12:54:27;9.23;;;4.97;;
68765;SDS011;55756;45.582;11.484;2023-04-23T12:56:55;7.30;;;4.07;;
68765;SDS011;55756;45.582;11.484;2023-04-23T12:59:22;8.32;;;4.20;;
68765;SDS011;55756;45.582;11.484;2023-04-23T13:01:47;9.48;;;4.30;;
68765;SDS011;55756;45.582;11.484;2023-04-23T13:04:14;8.05;;;4.35;;
68765;SDS011;55756;45.582;11.484;2023-04-23T13:06:40;7.38;;;3.97;;
68765;SDS011;55756;45.582;11.484;2023-04-23T13:09:07;7.82;;;3.85;;
68765;SDS011;55756;45.582;11.484;2023-04-23T13:11:37;9.25;;;3.80;;
68765;SDS011;55756;45.582;11.484;2023-04-23T13:14:04;7.57;;;3.55;;
68765;SDS011;55756;45.582;11.484;2023-04-23T13:16:30;6.80;;;3.40;;
68765;SDS011;55756;45.582;11.484;2023-04-23T13:18:56;7.47;;;3.40;;
68765;SDS011;55756;45.582;11.484;2023-04-23T13:21:22;7.63;;;3.33;;
68765;SDS011;55756;45.582;11.484;2023-04-23T13:23:48;6.80;;;3.13;;
68765;SDS011;55756;45.582;11.484;2023-04-23T13:26:14;6.68;;;2.92;;
68765;SDS011;55756;45.582;11.484;2023-04-23T13:28:40;6.00;;;2.90;;
68765;SDS011;55756;45.582;11.484;2023-04-23T13:31:06;6.93;;;3.03;;
68765;SDS011;55756;45.582;11.484;2023-04-23T13:33:32;6.88;;;2.97;;
68765;SDS011;55756;45.582;11.484;2023-04-23T13:35:59;6.10;;;3.03;;
68765;SDS011;55756;45.582;11.484;2023-04-23T13:38:25;7.68;;;3.00;;
68765;SDS011;55756;45.582;11.484;2023-04-23T13:40:52;7.13;;;3.13;;
68765;SDS011;55756;45.582;11.484;2023-04-23T13:43:18;6.78;;;3.17;;
68765;SDS011;55756;45.582;11.484;2023-04-23T13:45:44;8.73;;;3.05;;
68765;SDS011;55756;45.582;11.484;2023-04-23T13:48:11;6.40;;;3.20;;
68765;SDS011;55756;45.582;11.484;2023-04-23T13:50:40;7.00;;;2.90;;
68765;SDS011;55756;45.582;11.484;2023-04-23T13:53:08;6.18;;;2.72;;
68765;SDS011;55756;45.582;11.484;2023-04-23T13:55:35;6.50;;;2.90;;
68765;SDS011;55756;45.582;11.484;2023-04-23T13:58:01;6.63;;;2.90;;
68765;SDS011;55756;45.582;11.484;2023-04-23T14:00:31;6.45;;;2.95;;
68765;SDS011;55756;45.582;11.484;2023-04-23T14:02:57;7.18;;;3.03;;
68765;SDS011;55756;45.582;11.484;2023-04-23T14:05:23;5.68;;;2.90;;
68765;SDS011;55756;45.582;11.484;2023-04-23T14:07:49;5.97;;;2.80;;
68765;SDS011;55756;45.582;11.484;2023-04-23T14:10:15;6.85;;;2.75;;
68765;SDS011;55756;45.582;11.484;2023-04-23T14:12:42;7.18;;;2.70;;
68765;SDS011;55756;45.582;11.484;2023-04-23T14:15:08;5.93;;;2.70;;
68765;SDS011;55756;45.582;11.484;2023-04-23T14:17:35;6.47;;;2.80;;
68765;SDS011;55756;45.582;11.484;2023-04-23T14:20:03;5.97;;;2.92;;
68765;SDS011;55756;45.582;11.484;2023-04-23T14:22:30;6.95;;;2.72;;
68765;SDS011;55756;45.582;11.484;2023-04-23T14:24:56;8.57;;;2.95;;
68765;SDS011;55756;45.582;11.484;2023-04-23T14:27:28;7.47;;;2.70;;
68765;SDS011;55756;45.582;11.484;2023-04-23T14:30:00;7.28;;;3.20;;
68765;SDS011;55756;45.582;11.484;2023-04-23T14:32:29;8.40;;;2.80;;
68765;SDS011;55756;45.582;11.484;2023-04-23T14:34:55;7.40;;;3.20;;
68765;SDS011;55756;45.582;11.484;2023-04-23T14:37:21;9.18;;;3.03;;
68765;SDS011;55756;45.582;11.484;2023-04-23T14:39:47;6.65;;;3.15;;
68765;SDS011;55756;45.582;11.484;2023-04-23T14:42:13;7.75;;;3.10;;
68765;SDS011;55756;45.582;11.484;2023-04-23T14:44:38;7.40;;;2.97;;
68765;SDS011;55756;45.582;11.484;2023-04-23T14:47:04;8.07;;;2.92;;
68765;SDS011;55756;45.582;11.484;2023-04-23T14:49:34;6.30;;;3.10;;
68765;SDS011;55756;45.582;11.484;2023-04-23T14:51:59;7.40;;;3.00;;
68765;SDS011;55756;45.582;11.484;2023-04-23T14:54:26;7.53;;;3.10;;
68765;SDS011;55756;45.582;11.484;2023-04-23T14:56:52;7.47;;;3.30;;
68765;SDS011;55756;45.582;11.484;2023-04-23T14:59:18;9.48;;;3.25;;
68765;SDS011;55756;45.582;11.484;2023-04-23T15:01:44;9.15;;;3.00;;
68765;SDS011;55756;45.582;11.484;2023-04-23T15:04:10;7.18;;;3.20;;
68765;SDS011;55756;45.582;11.484;2023-04-23T15:06:36;8.40;;;3.50;;
68765;SDS011;55756;45.582;11.484;2023-04-23T15:09:04;7.07;;;3.42;;
68765;SDS011;55756;45.582;11.484;2023-04-23T15:11:30;7.72;;;3.78;;
68765;SDS011;55756;45.582;11.484;2023-04-23T15:14:06;7.45;;;3.50;;
68765;SDS011;55756;45.582;11.484;2023-04-23T15:16:40;6.40;;;3.38;;
68765;SDS011;55756;45.582;11.484;2023-04-23T15:19:06;8.93;;;3.58;;
68765;SDS011;55756;45.582;11.484;2023-04-23T15:21:34;11.45;;;3.55;;
68765;SDS011;55756;45.582;11.484;2023-04-23T15:24:00;8.10;;;3.80;;
68765;SDS011;55756;45.582;11.484;2023-04-23T15:26:25;6.32;;;3.75;;
68765;SDS011;55756;45.582;11.484;2023-04-23T15:28:51;8.18;;;4.00;;
68765;SDS011;55756;45.582;11.484;2023-04-23T15:31:17;6.57;;;3.75;;
68765;SDS011;55756;45.582;11.484;2023-04-23T15:33:43;8.07;;;3.85;;
68765;SDS011;55756;45.582;11.484;2023-04-23T15:36:08;6.82;;;3.67;;
68765;SDS011;55756;45.582;11.484;2023-04-23T15:38:34;7.80;;;3.92;;
68765;SDS011;55756;45.582;11.484;2023-04-23T15:41:00;11.15;;;4.10;;
68765;SDS011;55756;45.582;11.484;2023-04-23T15:43:26;8.70;;;4.68;;
68765;SDS011;55756;45.582;11.484;2023-04-23T15:45:52;8.50;;;4.30;;
68765;SDS011;55756;45.582;11.484;2023-04-23T15:48:19;7.97;;;4.88;;
68765;SDS011;55756;45.582;11.484;2023-04-23T15:50:45;9.35;;;4.60;;
68765;SDS011;55756;45.582;11.484;2023-04-23T15:53:12;8.23;;;4.68;;
68765;SDS011;55756;45.582;11.484;2023-04-23T15:55:38;9.27;;;4.40;;
68765;SDS011;55756;45.582;11.484;2023-04-23T15:58:04;10.07;;;4.97;;
68765;SDS011;55756;45.582;11.484;2023-04-23T16:00:30;12.10;;;5.10;;
68765;SDS011;55756;45.582;11.484;2023-04-23T16:02:58;10.13;;;5.30;;
68765;SDS011;55756;45.582;11.484;2023-04-23T16:05:30;8.80;;;5.00;;
68765;SDS011;55756;45.582;11.484;2023-04-23T16:07:57;7.63;;;4.85;;
68765;SDS011;55756;45.582;11.484;2023-04-23T16:10:23;11.23;;;5.05;;
68765;SDS011;55756;45.582;11.484;2023-04-23T16:12:50;11.10;;;5.30;;
68765;SDS011;55756;45.582;11.484;2023-04-23T16:15:18;8.70;;;5.23;;
68765;SDS011;55756;45.582;11.484;2023-04-23T16:17:44;9.27;;;4.95;;
68765;SDS011;55756;45.582;11.484;2023-04-23T16:20:11;8.77;;;5.10;;
68765;SDS011;55756;45.582;11.484;2023-04-23T16:22:37;9.63;;;5.20;;
68765;SDS011;55756;45.582;11.484;2023-04-23T16:25:03;8.27;;;4.90;;
68765;SDS011;55756;45.582;11.484;2023-04-23T16:27:30;8.85;;;5.32;;
68765;SDS011;55756;45.582;11.484;2023-04-23T16:29:56;10.20;;;5.72;;
68765;SDS011;55756;45.582;11.484;2023-04-23T16:32:22;10.63;;;5.53;;
68765;SDS011;55756;45.582;11.484;2023-04-23T16:34:47;10.43;;;5.53;;
68765;SDS011;55756;45.582;11.484;2023-04-23T16:37:13;8.93;;;5.63;;
68765;SDS011;55756;45.582;11.484;2023-04-23T16:39:43;10.07;;;5.80;;
68765;SDS011;55756;45.582;11.484;2023-04-23T16:44:34;9.55;;;5.88;;
68765;SDS011;55756;45.582;11.484;2023-04-23T16:47:00;13.35;;;6.10;;
68765;SDS011;55756;45.582;11.484;2023-04-23T16:49:26;10.23;;;5.90;;
68765;SDS011;55756;45.582;11.484;2023-04-23T16:51:52;11.23;;;6.00;;
68765;SDS011;55756;45.582;11.484;2023-04-23T16:54:17;10.00;;;5.70;;
68765;SDS011;55756;45.582;11.484;2023-04-23T16:56:43;9.07;;;5.40;;
68765;SDS011;55756;45.582;11.484;2023-04-23T16:59:10;9.57;;;5.43;;
68765;SDS011;55756;45.582;11.484;2023-04-23T17:01:36;10.15;;;5.70;;
68765;SDS011;55756;45.582;11.484;2023-04-23T17:04:02;9.68;;;5.85;;
68765;SDS011;55756;45.582;11.484;2023-04-23T17:06:28;9.75;;;5.47;;
68765;SDS011;55756;45.582;11.484;2023-04-23T17:08:55;8.93;;;5.22;;
68765;SDS011;55756;45.582;11.484;2023-04-23T17:11:22;9.40;;;5.80;;
68765;SDS011;55756;45.582;11.484;2023-04-23T17:13:49;10.52;;;6.10;;
68765;SDS011;55756;45.582;11.484;2023-04-23T17:16:15;9.65;;;6.35;;
68765;SDS011;55756;45.582;11.484;2023-04-23T17:18:41;10.23;;;6.13;;
68765;SDS011;55756;45.582;11.484;2023-04-23T17:21:07;12.75;;;6.65;;
68765;SDS011;55756;45.582;11.484;2023-04-23T17:23:33;10.65;;;6.20;;
68765;SDS011;55756;45.582;11.484;2023-04-23T17:25:59;11.60;;;6.70;;
68765;SDS011;55756;45.582;11.484;2023-04-23T17:28:25;11.75;;;6.53;;
68765;SDS011;55756;45.582;11.484;2023-04-23T17:30:51;10.68;;;6.55;;
68765;SDS011;55756;45.582;11.484;2023-04-23T17:33:19;11.15;;;7.10;;
68765;SDS011;55756;45.582;11.484;2023-04-23T17:35:46;13.25;;;7.57;;
68765;SDS011;55756;45.582;11.484;2023-04-23T17:38:16;12.48;;;7.32;;
68765;SDS011;55756;45.582;11.484;2023-04-23T17:43:11;11.05;;;7.13;;
68765;SDS011;55756;45.582;11.484;2023-04-23T17:45:37;13.48;;;7.72;;
68765;SDS011;55756;45.582;11.484;2023-04-23T17:48:03;20.92;;;13.20;;
68765;SDS011;55756;45.582;11.484;2023-04-23T17:50:29;26.02;;;16.42;;
68765;SDS011;55756;45.582;11.484;2023-04-23T17:52:55;22.52;;;13.88;;
68765;SDS011;55756;45.582;11.484;2023-04-23T17:55:21;16.23;;;10.02;;
68765;SDS011;55756;45.582;11.484;2023-04-23T17:57:47;15.90;;;9.93;;
68765;SDS011;55756;45.582;11.484;2023-04-23T18:00:13;17.45;;;10.07;;
68765;SDS011;55756;45.582;11.484;2023-04-23T18:02:41;15.57;;;9.80;;
68765;SDS011;55756;45.582;11.484;2023-04-23T18:05:11;13.68;;;9.18;;
68765;SDS011;55756;45.582;11.484;2023-04-23T18:07:39;17.15;;;9.30;;
68765;SDS011;55756;45.582;11.484;2023-04-23T18:10:06;16.58;;;9.57;;
68765;SDS011;55756;45.582;11.484;2023-04-23T18:12:32;15.90;;;9.93;;
68765;SDS011;55756;45.582;11.484;2023-04-23T18:14:58;15.25;;;9.70;;
68765;SDS011;55756;45.582;11.484;2023-04-23T18:17:25;15.57;;;9.90;;
68765;SDS011;55756;45.582;11.484;2023-04-23T18:19:51;15.15;;;10.13;;
68765;SDS011;55756;45.582;11.484;2023-04-23T18:22:17;16.33;;;10.10;;
68765;SDS011;55756;45.582;11.484;2023-04-23T18:24:44;16.05;;;10.70;;
68765;SDS011;55756;45.582;11.484;2023-04-23T18:27:10;23.45;;;12.80;;
68765;SDS011;55756;45.582;11.484;2023-04-23T18:29:36;18.05;;;12.05;;
68765;SDS011;55756;45.582;11.484;2023-04-23T18:32:02;16.85;;;11.40;;
68765;SDS011;55756;45.582;11.484;2023-04-23T18:34:29;19.88;;;11.10;;
68765;SDS011;55756;45.582;11.484;2023-04-23T18:36:59;15.80;;;11.63;;
68765;SDS011;55756;45.582;11.484;2023-04-23T18:39:28;18.90;;;12.02;;
68765;SDS011;55756;45.582;11.484;2023-04-23T18:41:54;19.73;;;12.00;;
68765;SDS011;55756;45.582;11.484;2023-04-23T18:44:20;18.10;;;11.98;;
68765;SDS011;55756;45.582;11.484;2023-04-23T18:46:45;15.70;;;12.18;;
68765;SDS011;55756;45.582;11.484;2023-04-23T18:52:02;15.90;;;11.90;;
68765;SDS011;55756;45.582;11.484;2023-04-23T18:54:27;17.20;;;11.90;;
68765;SDS011;55756;45.582;11.484;2023-04-23T18:56:53;18.75;;;12.13;;
68765;SDS011;55756;45.582;11.484;2023-04-23T18:59:20;16.10;;;12.43;;
68765;SDS011;55756;45.582;11.484;2023-04-23T19:01:46;17.17;;;12.70;;
68765;SDS011;55756;45.582;11.484;2023-04-23T19:04:15;18.10;;;12.77;;
68765;SDS011;55756;45.582;11.484;2023-04-23T19:09:06;20.20;;;13.45;;
68765;SDS011;55756;45.582;11.484;2023-04-23T19:11:32;17.05;;;13.60;;
68765;SDS011;55756;45.582;11.484;2023-04-23T19:13:59;18.30;;;12.55;;
68765;SDS011;55756;45.582;11.484;2023-04-23T19:16:26;17.67;;;13.82;;
68765;SDS011;55756;45.582;11.484;2023-04-23T19:18:52;17.45;;;13.55;;
68765;SDS011;55756;45.582;11.484;2023-04-23T19:21:18;19.42;;;13.70;;
68765;SDS011;55756;45.582;11.484;2023-04-23T19:23:43;20.63;;;15.02;;
68765;SDS011;55756;45.582;11.484;2023-04-23T19:26:09;19.73;;;14.48;;